createdAt,value
2022-08-24T00:01:46.327Z,19.21
2022-08-24T00:03:48.738Z,19.23
2022-08-24T00:05:57.498Z,19.25
2022-08-24T00:07:59.551Z,19.26
2022-08-24T00:10:01.645Z,19.23
2022-08-24T00:12:04.869Z,19.26
2022-08-24T00:14:06.986Z,19.25
2022-08-24T00:16:09.912Z,19.21
2022-08-24T00:18:12.073Z,19.22
2022-08-24T00:20:16.377Z,19.19
2022-08-24T00:22:18.910Z,19.18
2022-08-24T00:24:20.995Z,19.13
2022-08-24T00:26:29.121Z,19.11
2022-08-24T00:28:31.553Z,19.12
2022-08-24T00:30:33.934Z,19.10
2022-08-24T00:32:37.834Z,19.09
2022-08-24T00:34:39.884Z,19.10
2022-08-24T00:36:46.867Z,19.08
2022-08-24T00:38:49.777Z,19.08
2022-08-24T00:40:51.779Z,19.08
2022-08-24T00:42:54.134Z,19.08
2022-08-24T00:44:56.117Z,19.03
2022-08-24T00:47:12.973Z,19.02
2022-08-24T00:49:42.759Z,19.07
2022-08-24T00:51:52.998Z,19.06
2022-08-24T00:54:06.014Z,19.00
2022-08-24T00:56:10.618Z,18.87
2022-08-24T00:58:21.749Z,18.93
2022-08-24T01:00:27.936Z,18.93
2022-08-24T01:02:32.997Z,18.96
2022-08-24T01:04:43.211Z,18.94
2022-08-24T01:06:46.293Z,18.95
2022-08-24T01:08:48.274Z,18.87
2022-08-24T01:11:15.619Z,18.86
2022-08-24T01:13:17.958Z,18.85
2022-08-24T01:15:20.557Z,18.83
2022-08-24T01:17:40.972Z,18.75
2022-08-24T01:19:46.614Z,18.76
2022-08-24T01:22:30.737Z,18.79
2022-08-24T01:24:32.783Z,18.80
2022-08-24T01:26:48.949Z,18.75
2022-08-24T01:28:52.692Z,18.76
2022-08-24T01:30:55.276Z,18.76
2022-08-24T01:33:00.071Z,18.77
2022-08-24T01:35:02.143Z,18.79
2022-08-24T01:37:04.480Z,18.75
2022-08-24T01:39:11.725Z,18.80
2022-08-24T01:41:14.350Z,18.76
2022-08-24T01:43:16.510Z,18.76
2022-08-24T01:45:19.626Z,18.72
2022-08-24T01:47:21.669Z,18.71
2022-08-24T01:49:26.543Z,18.72
2022-08-24T01:51:32.130Z,18.69
2022-08-24T01:53:34.107Z,18.70
2022-08-24T01:55:36.182Z,18.67
2022-08-24T01:57:38.380Z,18.66
2022-08-24T01:59:40.695Z,18.64
2022-08-24T02:01:48.923Z,18.64
2022-08-24T02:03:51.917Z,18.64
2022-08-24T02:05:54.485Z,18.65
2022-08-24T02:07:56.861Z,18.64
2022-08-24T02:09:58.956Z,18.64
2022-08-24T02:12:00.950Z,18.64
2022-08-24T02:14:03.735Z,18.64
2022-08-24T02:16:08.151Z,18.67
2022-08-24T02:18:15.071Z,18.66
2022-08-24T02:20:18.400Z,18.61
2022-08-24T02:22:20.409Z,18.60
2022-08-24T02:24:22.426Z,18.60
2022-08-24T02:26:24.435Z,18.54
2022-08-24T02:28:33.858Z,18.55
2022-08-24T02:30:35.854Z,18.53
2022-08-24T02:32:37.870Z,18.60
2022-08-24T02:34:40.040Z,18.54
2022-08-24T02:36:42.051Z,18.52
2022-08-24T02:38:44.463Z,18.55
2022-08-24T02:40:46.711Z,18.56
2022-08-24T02:42:48.735Z,18.59
2022-08-24T02:44:50.750Z,18.56
2022-08-24T02:46:55.889Z,18.54
2022-08-24T02:49:10.598Z,18.50
2022-08-24T02:51:31.148Z,18.56
2022-08-24T02:53:44.196Z,18.49
2022-08-24T02:55:46.318Z,18.55
2022-08-24T02:57:48.995Z,18.53
2022-08-24T02:59:50.933Z,18.48
2022-08-24T03:01:53.214Z,18.48
2022-08-24T03:03:55.686Z,18.51
2022-08-24T03:05:57.656Z,18.52
2022-08-24T03:07:59.660Z,18.56
2022-08-24T03:10:03.562Z,18.54
2022-08-24T03:12:05.722Z,18.50
2022-08-24T03:14:08.608Z,18.52
2022-08-24T03:16:12.307Z,18.54
2022-08-24T03:18:14.339Z,18.54
2022-08-24T03:20:19.691Z,18.56
2022-08-24T03:22:22.035Z,18.50
2022-08-24T03:24:24.125Z,18.50
2022-08-24T03:26:26.108Z,18.51
2022-08-24T03:28:28.792Z,18.50
2022-08-24T03:30:31.181Z,18.53
2022-08-24T03:32:33.267Z,18.55
2022-08-24T03:34:35.380Z,18.59
2022-08-24T03:36:37.354Z,18.61
2022-08-24T03:38:39.411Z,18.58
2022-08-24T03:40:41.881Z,18.57
2022-08-24T03:42:43.899Z,18.54
2022-08-24T03:44:47.643Z,18.56
2022-08-24T03:46:49.663Z,18.51
2022-08-24T03:48:52.412Z,18.55
2022-08-24T03:50:56.089Z,18.57
2022-08-24T03:52:59.085Z,18.58
2022-08-24T03:55:05.113Z,18.58
2022-08-24T03:57:07.103Z,18.61
2022-08-24T03:59:10.656Z,18.61
2022-08-24T04:01:12.781Z,18.60
2022-08-24T04:03:14.894Z,18.65
2022-08-24T04:05:16.959Z,18.66
2022-08-24T04:07:19.243Z,18.69
2022-08-24T04:09:21.250Z,18.72
2022-08-24T04:11:25.769Z,18.70
2022-08-24T04:13:31.925Z,18.69
2022-08-24T04:15:33.924Z,18.70
2022-08-24T04:17:37.612Z,18.69
2022-08-24T04:19:57.625Z,18.73
2022-08-24T04:21:59.970Z,18.73
2022-08-24T04:24:02.556Z,18.72
2022-08-24T04:26:05.068Z,18.74
2022-08-24T04:28:07.081Z,18.76
2022-08-24T04:30:10.194Z,18.76
2022-08-24T04:32:16.400Z,18.76
2022-08-24T04:34:18.713Z,18.77
2022-08-24T04:36:21.568Z,18.80
2022-08-24T04:38:23.683Z,18.79
2022-08-24T04:40:25.706Z,18.78
2022-08-24T04:42:27.837Z,18.81
2022-08-24T04:44:31.500Z,18.87
2022-08-24T04:46:33.743Z,18.91
2022-08-24T04:48:36.019Z,18.97
2022-08-24T04:50:39.690Z,18.97
2022-08-24T04:52:42.075Z,19.01
2022-08-24T04:54:44.078Z,19.03
2022-08-24T04:56:46.087Z,19.01
2022-08-24T04:58:48.100Z,19.04
2022-08-24T05:00:50.173Z,19.06
2022-08-24T05:02:52.302Z,19.12
2022-08-24T05:04:56.448Z,19.15
2022-08-24T05:06:58.449Z,19.18
2022-08-24T05:09:01.434Z,19.22
2022-08-24T05:11:07.018Z,19.23
2022-08-24T05:13:09.330Z,19.29
2022-08-24T05:15:13.064Z,19.34
2022-08-24T05:17:15.076Z,19.38
2022-08-24T05:19:17.214Z,19.41
2022-08-24T05:21:21.646Z,19.43
2022-08-24T05:23:23.738Z,19.48
2022-08-24T05:25:25.754Z,19.49
2022-08-24T05:27:27.740Z,19.51
2022-08-24T05:29:33.686Z,19.57
2022-08-24T05:31:35.715Z,19.55
2022-08-24T05:33:37.849Z,19.61
2022-08-24T05:35:43.647Z,19.63
2022-08-24T05:37:46.314Z,19.70
2022-08-24T05:39:48.370Z,19.74
2022-08-24T05:41:50.428Z,19.73
2022-08-24T05:43:52.688Z,19.77
2022-08-24T05:45:54.672Z,19.81
2022-08-24T05:47:56.708Z,19.83
2022-08-24T05:49:58.673Z,19.81
2022-08-24T05:52:00.666Z,19.83
2022-08-24T05:54:04.985Z,19.88
2022-08-24T05:56:12.358Z,19.92
2022-08-24T05:58:15.245Z,19.97
2022-08-24T06:00:25.778Z,20.03
2022-08-24T06:02:28.149Z,20.07
2022-08-24T06:04:31.086Z,20.12
2022-08-24T06:06:33.390Z,20.17
2022-08-24T06:08:40.717Z,20.20
2022-08-24T06:10:46.056Z,20.28
2022-08-24T06:12:48.544Z,20.31
2022-08-24T06:14:50.582Z,20.35
2022-08-24T06:16:52.889Z,20.40
2022-08-24T06:18:55.078Z,20.41
2022-08-24T06:20:57.260Z,20.44
2022-08-24T06:23:00.085Z,20.39
2022-08-24T06:25:34.647Z,20.43
2022-08-24T06:27:36.966Z,20.47
2022-08-24T06:29:38.951Z,20.49
2022-08-24T06:31:43.536Z,20.58
2022-08-24T06:33:45.651Z,20.64
2022-08-24T06:35:47.826Z,20.66
2022-08-24T06:37:49.845Z,20.69
2022-08-24T06:39:55.064Z,20.71
2022-08-24T06:41:59.477Z,20.76
2022-08-24T06:44:01.529Z,20.76
2022-08-24T06:46:03.984Z,20.85
2022-08-24T06:48:06.217Z,20.88
2022-08-24T06:50:08.716Z,20.97
2022-08-24T06:52:11.929Z,20.99
2022-08-24T06:54:14.044Z,21.03
2022-08-24T06:56:16.835Z,21.05
2022-08-24T06:58:19.433Z,21.11
2022-08-24T07:00:22.071Z,21.18
2022-08-24T07:02:24.233Z,21.25
2022-08-24T07:04:28.245Z,21.34
2022-08-24T07:06:30.536Z,21.42
2022-08-24T07:08:32.703Z,21.41
2022-08-24T07:10:34.930Z,21.45
2022-08-24T07:12:37.262Z,21.48
2022-08-24T07:14:39.444Z,21.57
2022-08-24T07:16:41.488Z,21.62
2022-08-24T07:18:47.337Z,21.64
2022-08-24T07:20:51.816Z,21.63
2022-08-24T07:22:54.685Z,21.65
2022-08-24T07:24:56.809Z,21.70
2022-08-24T07:26:58.847Z,21.71
2022-08-24T07:29:46.237Z,21.67
2022-08-24T07:31:44.793Z,21.72
2022-08-24T07:33:46.906Z,21.80
2022-08-24T07:35:48.914Z,21.84
2022-08-24T07:37:51.083Z,21.91
2022-08-24T07:39:57.152Z,21.94
2022-08-24T07:42:12.613Z,21.94
2022-08-24T07:44:15.818Z,21.92
2022-08-24T07:46:17.923Z,21.96
2022-08-24T07:48:19.976Z,21.99
2022-08-24T07:50:21.985Z,21.97
2022-08-24T07:52:23.975Z,22.01
2022-08-24T07:54:27.640Z,22.08
2022-08-24T07:56:29.836Z,22.10
2022-08-24T07:58:32.230Z,22.15
2022-08-24T08:00:34.263Z,22.19
2022-08-24T08:02:37.767Z,22.26
2022-08-24T08:04:40.060Z,22.30
2022-08-24T08:06:42.489Z,22.39
2022-08-24T08:08:45.129Z,22.44
2022-08-24T08:10:47.145Z,22.43
2022-08-24T08:12:49.327Z,22.56
2022-08-24T08:14:51.336Z,22.58
2022-08-24T08:16:53.671Z,22.60
2022-08-24T08:19:11.554Z,22.70
2022-08-24T08:21:32.479Z,22.87
2022-08-24T08:23:53.300Z,22.97
2022-08-24T08:25:57.583Z,23.15
2022-08-24T08:28:04.394Z,23.33
2022-08-24T08:30:15.996Z,23.41
2022-08-24T08:32:20.114Z,23.51
2022-08-24T08:34:22.200Z,23.56
2022-08-24T08:36:24.347Z,23.54
2022-08-24T08:38:26.572Z,23.63
2022-08-24T08:41:04.859Z,23.62
2022-08-24T08:43:26.503Z,23.66
2022-08-24T08:46:09.808Z,23.77
2022-08-24T08:48:55.671Z,24.00
2022-08-24T08:51:25.292Z,24.14
2022-08-24T08:53:42.307Z,24.06
2022-08-24T08:56:44.625Z,24.10
2022-08-24T08:59:12.407Z,24.28
2022-08-24T09:01:55.542Z,24.48
2022-08-24T09:04:39.867Z,24.60
2022-08-24T09:07:18.700Z,24.71
2022-08-24T09:09:36.961Z,24.82
2022-08-24T09:12:08.688Z,24.78
2022-08-24T09:14:40.487Z,24.74
2022-08-24T09:17:07.471Z,24.98
2022-08-24T09:19:34.662Z,25.13
2022-08-24T09:22:11.449Z,25.39
2022-08-24T09:24:48.617Z,25.75
2022-08-24T09:26:57.445Z,25.84
2022-08-24T09:29:18.132Z,25.76
2022-08-24T09:31:34.976Z,25.84
2022-08-24T09:34:06.655Z,26.00
2022-08-24T09:36:32.891Z,26.20
2022-08-24T09:39:20.249Z,26.60
2022-08-24T09:41:45.698Z,26.85
2022-08-24T09:44:06.487Z,26.87
2022-08-24T09:46:47.376Z,26.84
2022-08-24T09:49:05.072Z,27.30
2022-08-24T09:51:35.077Z,27.73
2022-08-24T09:54:24.197Z,28.35
2022-08-24T09:57:11.574Z,28.24
2022-08-24T10:00:10.826Z,29.15
2022-08-24T10:02:39.728Z,29.60
2022-08-24T10:05:05.915Z,29.88
2022-08-24T10:07:24.440Z,30.27
2022-08-24T10:10:02.929Z,30.87
2022-08-24T10:12:38.312Z,31.07
2022-08-24T10:15:14.464Z,31.29
2022-08-24T10:17:51.177Z,31.52
2022-08-24T10:20:05.928Z,32.09
2022-08-24T10:22:32.369Z,32.75
2022-08-24T10:25:09.113Z,33.16
2022-08-24T10:27:46.026Z,33.50
2022-08-24T10:30:42.304Z,34.05
2022-08-24T10:33:06.330Z,34.09
2022-08-24T10:35:22.823Z,33.50
2022-08-24T10:38:40.871Z,34.02
2022-08-24T10:41:23.237Z,34.16
2022-08-24T10:43:35.043Z,34.45
2022-08-24T10:46:10.023Z,35.60
2022-08-24T10:49:10.251Z,35.75
2022-08-24T10:52:04.095Z,35.91
2022-08-24T10:54:06.706Z,35.92
2022-08-24T10:56:47.762Z,36.47
2022-08-24T10:59:18.910Z,36.36
2022-08-24T11:01:34.056Z,36.58
2022-08-24T11:03:56.019Z,36.97
2022-08-24T11:05:58.171Z,37.40
2022-08-24T11:08:05.350Z,37.36
2022-08-24T11:10:10.074Z,37.58
2022-08-24T11:12:24.407Z,37.43
2022-08-24T11:14:29.377Z,38.14
2022-08-24T11:16:39.636Z,38.39
2022-08-24T11:18:54.549Z,38.22
2022-08-24T11:20:56.615Z,38.29
2022-08-24T11:23:06.972Z,38.57
2022-08-24T11:25:16.975Z,38.69
2022-08-24T11:27:30.564Z,38.52
2022-08-24T11:29:50.342Z,38.48
2022-08-24T11:31:52.922Z,38.58
2022-08-24T11:34:01.606Z,38.92
2022-08-24T11:36:03.997Z,38.93
2022-08-24T11:38:21.995Z,38.59
2022-08-24T11:40:30.671Z,38.86
2022-08-24T11:43:05.766Z,38.66
2022-08-24T11:46:06.548Z,38.56
2022-08-24T11:48:48.233Z,38.42
2022-08-24T11:51:24.721Z,38.91
2022-08-24T11:54:13.994Z,38.64
2022-08-24T11:57:18.214Z,38.80
2022-08-24T11:59:40.913Z,39.45
2022-08-24T12:01:56.497Z,39.17
2022-08-24T12:04:31.442Z,39.19
2022-08-24T12:06:52.713Z,39.85
2022-08-24T12:09:35.516Z,39.90
2022-08-24T12:12:03.818Z,39.41
2022-08-24T12:14:23.110Z,39.14
2022-08-24T12:17:17.129Z,39.20
2022-08-24T12:19:37.913Z,39.54
2022-08-24T12:21:41.363Z,39.72
2022-08-24T12:23:47.677Z,38.95
2022-08-24T12:26:03.462Z,39.78
2022-08-24T12:28:05.773Z,39.46
2022-08-24T12:30:16.080Z,39.08
2022-08-24T12:32:53.977Z,39.02
2022-08-24T12:35:01.409Z,38.98
2022-08-24T12:37:16.690Z,39.22
2022-08-24T12:39:34.071Z,39.34
2022-08-24T12:42:16.802Z,39.16
2022-08-24T12:44:19.138Z,39.07
2022-08-24T12:46:25.600Z,38.97
2022-08-24T12:48:45.202Z,38.90
2022-08-24T12:51:22.330Z,39.19
2022-08-24T12:53:43.640Z,39.39
2022-08-24T12:56:01.223Z,39.80
2022-08-24T12:58:40.093Z,40.20
2022-08-24T13:00:46.990Z,40.01
2022-08-24T13:03:02.148Z,40.16
2022-08-24T13:05:17.406Z,40.57
2022-08-24T13:07:19.240Z,40.53
2022-08-24T13:09:59.750Z,40.01
2022-08-24T13:12:30.464Z,39.51
2022-08-24T13:14:32.467Z,38.88
2022-08-24T13:16:57.341Z,38.33
2022-08-24T13:19:34.243Z,38.38
2022-08-24T13:21:47.121Z,38.29
2022-08-24T13:24:11.545Z,38.80
2022-08-24T13:26:24.645Z,38.69
2022-08-24T13:28:31.259Z,38.26
2022-08-24T13:30:55.705Z,38.37
2022-08-24T13:33:06.383Z,38.29
2022-08-24T13:35:55.731Z,37.66
2022-08-24T13:38:28.391Z,37.50
2022-08-24T13:40:30.633Z,36.69
2022-08-24T13:43:02.952Z,36.21
2022-08-24T13:45:33.933Z,36.01
2022-08-24T13:48:04.297Z,35.99
2022-08-24T13:50:47.688Z,36.36
2022-08-24T13:53:41.158Z,36.63
2022-08-24T13:55:51.448Z,36.63
2022-08-24T13:58:14.565Z,36.71
2022-08-24T14:00:58.577Z,36.56
2022-08-24T14:03:24.632Z,36.40
2022-08-24T14:05:48.613Z,36.18
2022-08-24T14:08:28.110Z,35.94
2022-08-24T14:10:53.828Z,35.59
2022-08-24T14:13:05.338Z,35.32
2022-08-24T14:15:30.757Z,35.40
2022-08-24T14:17:55.454Z,34.98
2022-08-24T14:20:11.102Z,34.64
2022-08-24T14:22:35.277Z,34.50
2022-08-24T14:25:28.099Z,33.96
2022-08-24T14:27:44.765Z,34.14
2022-08-24T14:29:47.109Z,33.98
2022-08-24T14:31:58.645Z,33.79
2022-08-24T14:34:06.617Z,33.75
2022-08-24T14:36:15.749Z,33.65
2022-08-24T14:38:21.268Z,33.73
2022-08-24T14:41:15.819Z,33.39
2022-08-24T14:43:34.095Z,33.24
2022-08-24T14:46:12.383Z,33.02
2022-08-24T14:49:02.770Z,32.96
2022-08-24T14:51:42.371Z,32.96
2022-08-24T14:54:12.110Z,33.20
2022-08-24T14:56:35.914Z,33.73
2022-08-24T14:59:06.504Z,34.05
2022-08-24T15:01:48.235Z,34.62
2022-08-24T15:04:11.295Z,34.87
2022-08-24T15:06:47.244Z,34.92
2022-08-24T15:08:49.448Z,34.98
2022-08-24T15:11:18.604Z,35.24
2022-08-24T15:13:29.869Z,35.62
2022-08-24T15:15:34.643Z,35.70
2022-08-24T15:17:59.825Z,35.80
2022-08-24T15:20:21.460Z,35.50
2022-08-24T15:22:29.174Z,35.87
2022-08-24T15:25:11.366Z,36.00
2022-08-24T15:27:24.450Z,35.80
2022-08-24T15:29:30.565Z,35.80
2022-08-24T15:31:33.020Z,35.85
2022-08-24T15:33:36.769Z,35.87
2022-08-24T15:35:44.935Z,36.08
2022-08-24T15:37:46.970Z,36.18
2022-08-24T15:39:48.945Z,35.99
2022-08-24T15:41:51.028Z,36.02
2022-08-24T15:44:13.119Z,35.75
2022-08-24T15:46:48.723Z,35.80
2022-08-24T15:48:51.103Z,36.03
2022-08-24T15:50:54.403Z,36.13
2022-08-24T15:53:00.250Z,36.00
2022-08-24T15:55:03.558Z,36.05
2022-08-24T15:57:18.456Z,35.62
2022-08-24T16:00:53.285Z,35.59
2022-08-24T16:02:55.323Z,35.59
2022-08-24T16:05:15.137Z,35.16
2022-08-24T16:07:25.736Z,34.95
2022-08-24T16:09:30.211Z,34.96
2022-08-24T16:11:48.174Z,34.97
2022-08-24T16:13:50.410Z,34.97
2022-08-24T16:16:07.043Z,34.88
2022-08-24T16:18:09.354Z,34.59
2022-08-24T16:20:22.991Z,34.42
2022-08-24T16:22:57.103Z,34.24
2022-08-24T16:25:22.439Z,34.10
2022-08-24T16:27:24.452Z,34.18
2022-08-24T16:29:38.051Z,34.06
2022-08-24T16:31:48.973Z,33.74
2022-08-24T16:33:50.954Z,33.69
2022-08-24T16:35:53.009Z,33.64
2022-08-24T16:37:55.710Z,33.46
2022-08-24T16:39:57.856Z,33.36
2022-08-24T16:42:06.432Z,32.90
2022-08-24T16:44:10.796Z,32.72
2022-08-24T16:46:13.358Z,32.70
2022-08-24T16:48:15.406Z,32.65
2022-08-24T16:50:19.137Z,32.33
2022-08-24T16:52:21.274Z,32.27
2022-08-24T16:54:26.453Z,32.09
2022-08-24T16:56:28.605Z,32.12
2022-08-24T16:58:33.050Z,31.93
2022-08-24T17:00:35.087Z,31.69
2022-08-24T17:02:37.696Z,31.57
2022-08-24T17:04:39.965Z,31.56
2022-08-24T17:06:41.937Z,31.25
2022-08-24T17:08:44.022Z,31.20
2022-08-24T17:10:46.157Z,31.09
2022-08-24T17:12:48.763Z,30.98
2022-08-24T17:14:50.774Z,30.93
2022-08-24T17:16:52.897Z,30.84
2022-08-24T17:18:58.809Z,30.78
2022-08-24T17:21:01.463Z,30.62
2022-08-24T17:23:03.573Z,30.34
2022-08-24T17:25:05.787Z,30.19
2022-08-24T17:27:08.020Z,30.20
2022-08-24T17:29:10.306Z,30.13
2022-08-24T17:31:15.759Z,30.08
2022-08-24T17:33:18.731Z,29.91
2022-08-24T17:35:21.336Z,29.71
2022-08-24T17:37:23.654Z,29.69
2022-08-24T17:39:25.645Z,29.53
2022-08-24T17:41:27.719Z,29.50
2022-08-24T17:43:30.435Z,29.46
2022-08-24T17:45:33.792Z,29.36
2022-08-24T17:47:35.916Z,29.19
2022-08-24T17:49:38.537Z,29.12
2022-08-24T17:51:41.157Z,28.94
2022-08-24T17:53:43.223Z,28.92
2022-08-24T17:55:45.223Z,28.98
2022-08-24T17:57:49.024Z,28.93
2022-08-24T17:59:51.157Z,28.82
2022-08-24T18:01:56.026Z,28.78
2022-08-24T18:03:58.044Z,28.65
2022-08-24T18:06:00.056Z,28.60
2022-08-24T18:08:02.305Z,28.50
2022-08-24T18:10:07.817Z,28.47
2022-08-24T18:12:09.879Z,28.44
2022-08-24T18:14:11.875Z,28.27
2022-08-24T18:16:19.438Z,28.35
2022-08-24T18:18:21.534Z,28.08
2022-08-24T18:20:31.099Z,28.13
2022-08-24T18:22:33.137Z,28.02
2022-08-24T18:24:35.245Z,27.93
2022-08-24T18:26:37.710Z,27.87
2022-08-24T18:28:49.734Z,27.69
2022-08-24T18:30:52.022Z,27.59
2022-08-24T18:32:54.093Z,27.53
2022-08-24T18:34:56.103Z,27.46
2022-08-24T18:36:58.152Z,27.39
2022-08-24T18:39:05.014Z,27.38
2022-08-24T18:41:09.082Z,27.26
2022-08-24T18:43:12.812Z,27.04
2022-08-24T18:45:14.888Z,27.06
2022-08-24T18:47:17.507Z,27.08
2022-08-24T18:49:20.043Z,27.02
2022-08-24T18:51:22.004Z,26.85
2022-08-24T18:53:25.693Z,26.89
2022-08-24T18:55:27.971Z,26.83
2022-08-24T18:57:29.959Z,26.83
2022-08-24T18:59:31.946Z,26.71
2022-08-24T19:01:56.931Z,26.65
2022-08-24T19:03:59.002Z,26.69
2022-08-24T19:06:01.080Z,26.59
2022-08-24T19:08:04.275Z,26.42
2022-08-24T19:10:09.926Z,26.43
2022-08-24T19:12:11.947Z,26.32
2022-08-24T19:14:14.490Z,26.31
2022-08-24T19:16:16.416Z,26.26
2022-08-24T19:18:21.367Z,26.24
2022-08-24T19:20:23.394Z,26.09
2022-08-24T19:22:28.207Z,26.03
2022-08-24T19:24:30.711Z,25.83
2022-08-24T19:26:32.690Z,25.68
2022-08-24T19:28:34.763Z,25.58
2022-08-24T19:30:37.496Z,25.53
2022-08-24T19:32:40.311Z,25.50
2022-08-24T19:34:42.444Z,25.47
2022-08-24T19:36:44.709Z,25.46
2022-08-24T19:38:47.614Z,25.42
2022-08-24T19:40:49.683Z,25.35
2022-08-24T19:42:53.680Z,25.19
2022-08-24T19:45:15.984Z,25.15
2022-08-24T19:47:18.049Z,25.03
2022-08-24T19:49:20.110Z,25.01
2022-08-24T19:51:22.114Z,24.97
2022-08-24T19:53:24.272Z,24.87
2022-08-24T19:55:26.269Z,24.76
2022-08-24T19:57:36.017Z,24.64
2022-08-24T19:59:38.967Z,24.58
2022-08-24T20:01:41.003Z,24.65
2022-08-24T20:03:43.022Z,24.49
2022-08-24T20:05:45.078Z,24.54
2022-08-24T20:07:47.190Z,24.56
2022-08-24T20:09:49.205Z,24.44
2022-08-24T20:11:51.750Z,24.42
2022-08-24T20:13:53.920Z,24.27
2022-08-24T20:15:56.472Z,24.27
2022-08-24T20:17:59.053Z,24.21
2022-08-24T20:20:02.354Z,24.16
2022-08-24T20:22:13.590Z,24.18
2022-08-24T20:24:15.723Z,24.17
2022-08-24T20:26:17.801Z,24.17
2022-08-24T20:28:38.205Z,24.15
2022-08-24T20:30:40.429Z,24.04
2022-08-24T20:32:42.507Z,23.98
2022-08-24T20:34:45.010Z,24.00
2022-08-24T20:36:49.071Z,23.99
2022-08-24T20:38:51.272Z,24.03
2022-08-24T20:40:53.415Z,24.04
2022-08-24T20:42:55.414Z,23.95
2022-08-24T20:44:58.441Z,23.91
2022-08-24T20:47:01.294Z,23.84
2022-08-24T20:49:03.453Z,23.83
2022-08-24T20:51:05.636Z,23.79
2022-08-24T20:53:11.231Z,23.78
2022-08-24T20:55:14.082Z,23.72
2022-08-24T20:57:18.291Z,23.74
2022-08-24T20:59:20.434Z,23.75
2022-08-24T21:01:22.591Z,23.63
2022-08-24T21:03:24.637Z,23.56
2022-08-24T21:05:26.757Z,23.57
2022-08-24T21:07:28.743Z,23.54
2022-08-24T21:09:30.716Z,23.52
2022-08-24T21:11:33.055Z,23.53
2022-08-24T21:13:35.268Z,23.47
2022-08-24T21:15:38.412Z,23.53
2022-08-24T21:17:41.630Z,23.53
2022-08-24T21:19:43.643Z,23.52
2022-08-24T21:21:46.973Z,23.42
2022-08-24T21:23:49.161Z,23.43
2022-08-24T21:25:51.221Z,23.40
2022-08-24T21:27:53.257Z,23.36
2022-08-24T21:29:55.279Z,23.35
2022-08-24T21:32:15.676Z,23.33
2022-08-24T21:34:36.496Z,23.26
2022-08-24T21:36:38.653Z,23.24
2022-08-24T21:38:41.029Z,23.13
2022-08-24T21:40:47.371Z,23.07
2022-08-24T21:42:49.651Z,22.97
2022-08-24T21:44:51.723Z,22.92
2022-08-24T21:46:53.836Z,22.95
2022-08-24T21:48:56.550Z,22.91
2022-08-24T21:50:58.625Z,22.90
2022-08-24T21:53:00.662Z,22.92
2022-08-24T21:55:02.819Z,22.86
2022-08-24T21:57:05.910Z,22.85
2022-08-24T21:59:07.943Z,22.83
2022-08-24T22:01:10.026Z,22.88
2022-08-24T22:03:13.459Z,22.91
2022-08-24T22:05:16.265Z,22.95
2022-08-24T22:07:18.268Z,22.93
2022-08-24T22:09:20.604Z,22.95
2022-08-24T22:11:25.836Z,22.96
2022-08-24T22:13:27.857Z,22.94
2022-08-24T22:15:31.314Z,22.83
2022-08-24T22:17:33.320Z,22.88
2022-08-24T22:19:35.307Z,22.79
2022-08-24T22:21:41.782Z,22.78
2022-08-24T22:23:46.715Z,22.76
2022-08-24T22:25:52.538Z,22.76
2022-08-24T22:27:54.559Z,22.72
2022-08-24T22:29:57.691Z,22.76
2022-08-24T22:31:59.686Z,22.73
2022-08-24T22:34:04.909Z,22.73
2022-08-24T22:36:10.873Z,22.67
2022-08-24T22:38:12.961Z,22.57
2022-08-24T22:40:15.594Z,22.56
2022-08-24T22:42:20.991Z,22.43
2022-08-24T22:44:24.151Z,22.48
2022-08-24T22:46:26.289Z,22.51
2022-08-24T22:48:28.445Z,22.43
2022-08-24T22:50:32.701Z,22.33
2022-08-24T22:52:34.706Z,22.47
2022-08-24T22:54:36.691Z,22.47
2022-08-24T22:56:42.055Z,22.43
2022-08-24T22:58:44.382Z,22.38
2022-08-24T23:00:46.386Z,22.34
2022-08-24T23:02:48.452Z,22.28
2022-08-24T23:04:52.008Z,22.27
2022-08-24T23:06:55.079Z,22.29
2022-08-24T23:08:57.184Z,22.24
2022-08-24T23:10:59.208Z,22.22
2022-08-24T23:13:01.330Z,22.20
2022-08-24T23:15:03.551Z,22.23
2022-08-24T23:17:05.798Z,22.22
2022-08-24T23:19:26.930Z,22.23
2022-08-24T23:21:29.574Z,22.23
2022-08-24T23:23:31.512Z,22.15
2022-08-24T23:25:33.499Z,22.18
2022-08-24T23:27:38.152Z,22.22
2022-08-24T23:29:40.861Z,22.20
2022-08-24T23:31:44.492Z,22.17
2022-08-24T23:33:46.762Z,22.12
2022-08-24T23:35:48.755Z,22.10
2022-08-24T23:37:50.817Z,22.07
2022-08-24T23:39:52.844Z,22.06
2022-08-24T23:41:55.019Z,22.01
2022-08-24T23:43:57.091Z,21.95
2022-08-24T23:45:59.133Z,21.84
2022-08-24T23:48:01.474Z,21.80
2022-08-24T23:50:08.108Z,21.71
2022-08-24T23:52:25.905Z,21.72
2022-08-24T23:54:29.333Z,21.74
2022-08-24T23:56:33.887Z,21.80
2022-08-24T23:58:36.177Z,21.80
